sensor_id;sensor_type;location;lat;lon;timestamp;temperature;humidity
37956;DHT22;23776;51.592;7.180;2023-06-10T00:00:48;21.40;99.90
37956;DHT22;23776;51.592;7.180;2023-06-10T00:10:34;21.30;99.90
37956;DHT22;23776;51.592;7.180;2023-06-10T00:13:01;21.40;99.90
37956;DHT22;23776;51.592;7.180;2023-06-10T00:20:21;21.40;99.90
37956;DHT22;23776;51.592;7.180;2023-06-10T00:22:49;21.30;99.90
37956;DHT22;23776;51.592;7.180;2023-06-10T00:30:07;21.10;99.90
37956;DHT22;23776;51.592;7.180;2023-06-10T00:32:33;20.90;99.90
37956;DHT22;23776;51.592;7.180;2023-06-10T00:52:03;20.60;99.90
37956;DHT22;23776;51.592;7.180;2023-06-10T00:54:29;20.60;99.90
37956;DHT22;23776;51.592;7.180;2023-06-10T00:56:56;20.60;99.90
37956;DHT22;23776;51.592;7.180;2023-06-10T01:17:17;20.50;99.90
37956;DHT22;23776;51.592;7.180;2023-06-10T01:24:36;20.40;99.90
37956;DHT22;23776;51.592;7.180;2023-06-10T01:27:07;20.40;99.90
37956;DHT22;23776;51.592;7.180;2023-06-10T01:29:43;20.30;99.90
37956;DHT22;23776;51.592;7.180;2023-06-10T01:32:17;20.30;99.90
37956;DHT22;23776;51.592;7.180;2023-06-10T01:37:13;20.20;99.90
37956;DHT22;23776;51.592;7.180;2023-06-10T01:39:39;20.10;99.90
37956;DHT22;23776;51.592;7.180;2023-06-10T01:56:43;20.00;99.90
37956;DHT22;23776;51.592;7.180;2023-06-10T02:01:35;20.10;99.90
37956;DHT22;23776;51.592;7.180;2023-06-10T02:06:26;20.00;99.90
37956;DHT22;23776;51.592;7.180;2023-06-10T02:16:10;19.90;99.90
37956;DHT22;23776;51.592;7.180;2023-06-10T02:21:06;19.80;99.90
37956;DHT22;23776;51.592;7.180;2023-06-10T02:33:16;19.60;99.90
37956;DHT22;23776;51.592;7.180;2023-06-10T03:00:03;19.20;99.90
37956;DHT22;23776;51.592;7.180;2023-06-10T03:22:10;19.00;1.00
37956;DHT22;23776;51.592;7.180;2023-06-10T03:24:37;18.90;99.90
37956;DHT22;23776;51.592;7.180;2023-06-10T03:27:11;18.90;1.00
37956;DHT22;23776;51.592;7.180;2023-06-10T03:29:37;18.90;1.00
37956;DHT22;23776;51.592;7.180;2023-06-10T03:34:29;18.80;99.90
37956;DHT22;23776;51.592;7.180;2023-06-10T03:39:22;18.90;99.90
37956;DHT22;23776;51.592;7.180;2023-06-10T03:53:58;18.80;99.90
37956;DHT22;23776;51.592;7.180;2023-06-10T04:06:14;18.80;99.90
37956;DHT22;23776;51.592;7.180;2023-06-10T04:08:41;18.90;99.90
37956;DHT22;23776;51.592;7.180;2023-06-10T04:20:52;18.80;99.90
37956;DHT22;23776;51.592;7.180;2023-06-10T04:25:43;18.70;99.90
37956;DHT22;23776;51.592;7.180;2023-06-10T04:28:09;18.70;99.90
37956;DHT22;23776;51.592;7.180;2023-06-10T04:35:27;18.80;99.90
37956;DHT22;23776;51.592;7.180;2023-06-10T04:50:03;18.70;99.90
37956;DHT22;23776;51.592;7.180;2023-06-10T04:54:57;18.70;99.90
37956;DHT22;23776;51.592;7.180;2023-06-10T05:12:00;18.90;99.90
37956;DHT22;23776;51.592;7.180;2023-06-10T05:29:07;19.20;99.90
37956;DHT22;23776;51.592;7.180;2023-06-10T05:34:00;19.40;99.90
37956;DHT22;23776;51.592;7.180;2023-06-10T05:58:23;20.00;99.90
37956;DHT22;23776;51.592;7.180;2023-06-10T06:03:15;20.10;99.90
37956;DHT22;23776;51.592;7.180;2023-06-10T06:10:33;20.30;99.90
37956;DHT22;23776;51.592;7.180;2023-06-10T06:12:59;20.30;99.90
37956;DHT22;23776;51.592;7.180;2023-06-10T06:15:25;20.40;99.90
37956;DHT22;23776;51.592;7.180;2023-06-10T06:20:22;20.50;99.90
37956;DHT22;23776;51.592;7.180;2023-06-10T06:22:48;20.50;99.90
37956;DHT22;23776;51.592;7.180;2023-06-10T06:25:14;20.60;99.90
37956;DHT22;23776;51.592;7.180;2023-06-10T06:27:40;20.70;99.90
37956;DHT22;23776;51.592;7.180;2023-06-10T06:30:07;20.70;99.90
37956;DHT22;23776;51.592;7.180;2023-06-10T06:34:58;20.90;99.90
37956;DHT22;23776;51.592;7.180;2023-06-10T06:37:25;21.00;99.90
37956;DHT22;23776;51.592;7.180;2023-06-10T06:39:51;21.00;99.90
37956;DHT22;23776;51.592;7.180;2023-06-10T06:42:17;21.10;99.90
37956;DHT22;23776;51.592;7.180;2023-06-10T06:47:09;21.20;99.90
37956;DHT22;23776;51.592;7.180;2023-06-10T06:49:35;21.30;99.90
37956;DHT22;23776;51.592;7.180;2023-06-10T06:52:01;21.30;99.90
37956;DHT22;23776;51.592;7.180;2023-06-10T06:54:27;21.30;99.90
37956;DHT22;23776;51.592;7.180;2023-06-10T06:56:52;21.40;99.90
37956;DHT22;23776;51.592;7.180;2023-06-10T07:01:45;21.60;99.90
37956;DHT22;23776;51.592;7.180;2023-06-10T07:04:11;21.70;99.90
37956;DHT22;23776;51.592;7.180;2023-06-10T07:06:37;21.70;99.90
37956;DHT22;23776;51.592;7.180;2023-06-10T07:09:04;21.80;99.90
37956;DHT22;23776;51.592;7.180;2023-06-10T07:11:30;21.90;99.90
37956;DHT22;23776;51.592;7.180;2023-06-10T07:13:56;21.90;99.90
37956;DHT22;23776;51.592;7.180;2023-06-10T07:16:22;22.00;99.90
37956;DHT22;23776;51.592;7.180;2023-06-10T07:18:47;22.20;99.90
37956;DHT22;23776;51.592;7.180;2023-06-10T07:21:13;22.20;99.90
37956;DHT22;23776;51.592;7.180;2023-06-10T07:23:42;22.30;99.90
37956;DHT22;23776;51.592;7.180;2023-06-10T07:26:08;22.40;99.90
37956;DHT22;23776;51.592;7.180;2023-06-10T07:28:45;22.40;99.90
37956;DHT22;23776;51.592;7.180;2023-06-10T07:31:10;22.40;99.90
37956;DHT22;23776;51.592;7.180;2023-06-10T07:33:37;22.50;99.90
37956;DHT22;23776;51.592;7.180;2023-06-10T07:36:05;22.60;99.90
37956;DHT22;23776;51.592;7.180;2023-06-10T07:38:31;22.60;99.90
37956;DHT22;23776;51.592;7.180;2023-06-10T07:43:23;22.80;99.90
37956;DHT22;23776;51.592;7.180;2023-06-10T07:45:49;22.90;99.90
37956;DHT22;23776;51.592;7.180;2023-06-10T07:48:14;22.90;99.90
37956;DHT22;23776;51.592;7.180;2023-06-10T07:50:40;23.10;99.90
37956;DHT22;23776;51.592;7.180;2023-06-10T07:53:06;23.10;99.90
37956;DHT22;23776;51.592;7.180;2023-06-10T07:57:57;23.20;99.90
37956;DHT22;23776;51.592;7.180;2023-06-10T08:00:23;23.30;99.90
37956;DHT22;23776;51.592;7.180;2023-06-10T08:02:49;23.40;99.90
37956;DHT22;23776;51.592;7.180;2023-06-10T08:05:16;23.50;99.90
37956;DHT22;23776;51.592;7.180;2023-06-10T08:07:41;23.50;99.90
37956;DHT22;23776;51.592;7.180;2023-06-10T08:10:07;23.60;99.90
37956;DHT22;23776;51.592;7.180;2023-06-10T08:12:33;23.70;99.90
37956;DHT22;23776;51.592;7.180;2023-06-10T08:15:00;23.70;99.90
37956;DHT22;23776;51.592;7.180;2023-06-10T08:17:25;23.80;99.90
37956;DHT22;23776;51.592;7.180;2023-06-10T08:19:51;23.90;99.90
37956;DHT22;23776;51.592;7.180;2023-06-10T08:22:17;23.90;99.90
37956;DHT22;23776;51.592;7.180;2023-06-10T08:24:42;24.00;99.90
37956;DHT22;23776;51.592;7.180;2023-06-10T08:27:08;24.10;99.90
37956;DHT22;23776;51.592;7.180;2023-06-10T08:29:34;24.10;99.90
37956;DHT22;23776;51.592;7.180;2023-06-10T08:32:00;24.30;99.90
37956;DHT22;23776;51.592;7.180;2023-06-10T08:34:26;24.40;99.90
37956;DHT22;23776;51.592;7.180;2023-06-10T08:36:51;24.40;99.90
37956;DHT22;23776;51.592;7.180;2023-06-10T08:39:21;24.60;99.90
37956;DHT22;23776;51.592;7.180;2023-06-10T08:44:36;24.70;99.90
37956;DHT22;23776;51.592;7.180;2023-06-10T08:47:14;24.80;99.90
37956;DHT22;23776;51.592;7.180;2023-06-10T08:49:47;24.90;99.90
37956;DHT22;23776;51.592;7.180;2023-06-10T08:52:17;25.00;99.90
37956;DHT22;23776;51.592;7.180;2023-06-10T08:54:49;25.00;99.90
37956;DHT22;23776;51.592;7.180;2023-06-10T08:57:18;25.10;99.90
37956;DHT22;23776;51.592;7.180;2023-06-10T08:59:46;25.30;99.90
37956;DHT22;23776;51.592;7.180;2023-06-10T09:02:13;25.30;99.90
37956;DHT22;23776;51.592;7.180;2023-06-10T09:04:42;25.40;99.90
37956;DHT22;23776;51.592;7.180;2023-06-10T09:07:08;25.50;99.90
37956;DHT22;23776;51.592;7.180;2023-06-10T09:09:35;25.60;99.90
37956;DHT22;23776;51.592;7.180;2023-06-10T09:12:00;25.70;99.90
37956;DHT22;23776;51.592;7.180;2023-06-10T09:14:26;25.80;99.90
37956;DHT22;23776;51.592;7.180;2023-06-10T09:16:52;25.80;99.90
37956;DHT22;23776;51.592;7.180;2023-06-10T09:19:22;26.00;99.90
37956;DHT22;23776;51.592;7.180;2023-06-10T09:21:48;26.00;99.90
37956;DHT22;23776;51.592;7.180;2023-06-10T09:24:14;26.10;99.90
37956;DHT22;23776;51.592;7.180;2023-06-10T09:26:40;26.20;99.90
37956;DHT22;23776;51.592;7.180;2023-06-10T09:29:06;26.40;99.90
37956;DHT22;23776;51.592;7.180;2023-06-10T09:31:35;26.40;99.90
37956;DHT22;23776;51.592;7.180;2023-06-10T09:34:24;26.50;99.90
37956;DHT22;23776;51.592;7.180;2023-06-10T09:36:50;26.60;99.90
37956;DHT22;23776;51.592;7.180;2023-06-10T09:39:17;26.70;99.90
37956;DHT22;23776;51.592;7.180;2023-06-10T09:41:45;26.70;99.90
37956;DHT22;23776;51.592;7.180;2023-06-10T09:44:19;26.70;99.90
37956;DHT22;23776;51.592;7.180;2023-06-10T09:46:46;26.80;99.90
37956;DHT22;23776;51.592;7.180;2023-06-10T09:49:13;26.80;99.90
37956;DHT22;23776;51.592;7.180;2023-06-10T09:51:54;26.80;99.90
37956;DHT22;23776;51.592;7.180;2023-06-10T09:54:21;27.00;99.90
37956;DHT22;23776;51.592;7.180;2023-06-10T09:56:48;27.20;99.90
37956;DHT22;23776;51.592;7.180;2023-06-10T09:59:14;27.30;99.90
37956;DHT22;23776;51.592;7.180;2023-06-10T10:01:41;27.40;99.90
37956;DHT22;23776;51.592;7.180;2023-06-10T10:04:07;27.60;99.90
37956;DHT22;23776;51.592;7.180;2023-06-10T10:06:34;27.60;99.90
37956;DHT22;23776;51.592;7.180;2023-06-10T10:11:30;27.80;98.20
37956;DHT22;23776;51.592;7.180;2023-06-10T10:13:57;28.00;98.20
37956;DHT22;23776;51.592;7.180;2023-06-10T10:16:43;28.00;99.90
37956;DHT22;23776;51.592;7.180;2023-06-10T10:19:28;28.30;96.20
37956;DHT22;23776;51.592;7.180;2023-06-10T10:22:01;28.40;95.00
37956;DHT22;23776;51.592;7.180;2023-06-10T10:27:28;28.60;93.00
37956;DHT22;23776;51.592;7.180;2023-06-10T10:29:57;28.70;92.90
37956;DHT22;23776;51.592;7.180;2023-06-10T10:32:33;28.70;97.40
37956;DHT22;23776;51.592;7.180;2023-06-10T10:35:16;28.90;91.30
37956;DHT22;23776;51.592;7.180;2023-06-10T10:37:43;28.90;95.10
37956;DHT22;23776;51.592;7.180;2023-06-10T10:40:10;29.00;88.80
37956;DHT22;23776;51.592;7.180;2023-06-10T10:42:37;29.10;94.10
37956;DHT22;23776;51.592;7.180;2023-06-10T10:45:04;29.30;93.70
37956;DHT22;23776;51.592;7.180;2023-06-10T10:47:30;29.30;92.70
37956;DHT22;23776;51.592;7.180;2023-06-10T10:49:57;29.50;83.30
37956;DHT22;23776;51.592;7.180;2023-06-10T10:52:25;29.60;82.20
37956;DHT22;23776;51.592;7.180;2023-06-10T10:54:53;29.60;90.60
37956;DHT22;23776;51.592;7.180;2023-06-10T10:57:21;29.80;79.50
37956;DHT22;23776;51.592;7.180;2023-06-10T10:59:53;29.90;77.40
37956;DHT22;23776;51.592;7.180;2023-06-10T11:02:42;29.90;86.20
37956;DHT22;23776;51.592;7.180;2023-06-10T11:05:15;30.00;83.10
37956;DHT22;23776;51.592;7.180;2023-06-10T11:07:52;30.10;82.50
37956;DHT22;23776;51.592;7.180;2023-06-10T11:10:30;30.20;72.40
37956;DHT22;23776;51.592;7.180;2023-06-10T11:12:57;30.40;70.40
37956;DHT22;23776;51.592;7.180;2023-06-10T11:15:25;30.60;70.30
37956;DHT22;23776;51.592;7.180;2023-06-10T11:26:16;30.70;75.20
37956;DHT22;23776;51.592;7.180;2023-06-10T11:31:23;30.90;73.60
37956;DHT22;23776;51.592;7.180;2023-06-10T11:33:53;30.90;72.90
37956;DHT22;23776;51.592;7.180;2023-06-10T11:36:18;31.00;60.50
37956;DHT22;23776;51.592;7.180;2023-06-10T11:38:45;32.10;63.10
37956;DHT22;23776;51.592;7.180;2023-06-10T11:41:14;31.20;70.30
37956;DHT22;23776;51.592;7.180;2023-06-10T11:43:46;31.30;68.90
37956;DHT22;23776;51.592;7.180;2023-06-10T11:46:14;31.40;58.30
37956;DHT22;23776;51.592;7.180;2023-06-10T11:51:09;31.50;56.60
37956;DHT22;23776;51.592;7.180;2023-06-10T11:53:34;31.60;66.40
37956;DHT22;23776;51.592;7.180;2023-06-10T11:56:00;31.80;64.70
37956;DHT22;23776;51.592;7.180;2023-06-10T11:58:26;31.60;62.50
37956;DHT22;23776;51.592;7.180;2023-06-10T12:00:53;32.10;51.30
37956;DHT22;23776;51.592;7.180;2023-06-10T12:03:20;32.10;51.90
37956;DHT22;23776;51.592;7.180;2023-06-10T12:08:23;32.40;60.70
37956;DHT22;23776;51.592;7.180;2023-06-10T12:10:48;32.50;49.80
37956;DHT22;23776;51.592;7.180;2023-06-10T12:13:14;32.60;58.00
37956;DHT22;23776;51.592;7.180;2023-06-10T12:15:40;32.80;58.90
37956;DHT22;23776;51.592;7.180;2023-06-10T12:18:06;33.10;47.30
37956;DHT22;23776;51.592;7.180;2023-06-10T12:20:32;33.20;46.00
37956;DHT22;23776;51.592;7.180;2023-06-10T12:23:09;33.30;55.80
37956;DHT22;23776;51.592;7.180;2023-06-10T12:25:35;33.50;55.10
37956;DHT22;23776;51.592;7.180;2023-06-10T12:28:02;33.70;54.60
37956;DHT22;23776;51.592;7.180;2023-06-10T12:30:28;33.90;43.70
37956;DHT22;23776;51.592;7.180;2023-06-10T12:32:54;34.10;52.70
37956;DHT22;23776;51.592;7.180;2023-06-10T12:35:22;34.60;53.00
37956;DHT22;23776;51.592;7.180;2023-06-10T12:37:58;35.00;49.70
37956;DHT22;23776;51.592;7.180;2023-06-10T12:42:54;36.30;40.90
37956;DHT22;23776;51.592;7.180;2023-06-10T12:45:30;36.80;49.00
37956;DHT22;23776;51.592;7.180;2023-06-10T12:50:46;37.90;38.10
37956;DHT22;23776;51.592;7.180;2023-06-10T12:53:12;38.30;45.40
37956;DHT22;23776;51.592;7.180;2023-06-10T12:55:38;38.70;44.70
37956;DHT22;23776;51.592;7.180;2023-06-10T12:58:04;39.00;43.00
37956;DHT22;23776;51.592;7.180;2023-06-10T13:00:29;39.30;30.80
37956;DHT22;23776;51.592;7.180;2023-06-10T13:03:00;39.70;30.50
37956;DHT22;23776;51.592;7.180;2023-06-10T13:05:26;39.80;39.50
37956;DHT22;23776;51.592;7.180;2023-06-10T13:07:52;40.00;38.10
37956;DHT22;23776;51.592;7.180;2023-06-10T13:10:18;40.20;28.00
37956;DHT22;23776;51.592;7.180;2023-06-10T13:12:44;40.10;36.90
37956;DHT22;23776;51.592;7.180;2023-06-10T13:15:10;40.30;35.60
37956;DHT22;23776;51.592;7.180;2023-06-10T13:17:37;40.30;35.10
37956;DHT22;23776;51.592;7.180;2023-06-10T13:20:03;40.60;25.80
37956;DHT22;23776;51.592;7.180;2023-06-10T13:22:31;40.60;33.50
37956;DHT22;23776;51.592;7.180;2023-06-10T13:25:01;40.70;31.70
37956;DHT22;23776;51.592;7.180;2023-06-10T13:27:28;40.60;30.30
37956;DHT22;23776;51.592;7.180;2023-06-10T13:29:54;41.00;22.90
37956;DHT22;23776;51.592;7.180;2023-06-10T13:32:19;41.20;30.20
37956;DHT22;23776;51.592;7.180;2023-06-10T13:34:45;41.00;29.20
37956;DHT22;23776;51.592;7.180;2023-06-10T13:37:10;41.20;29.40
37956;DHT22;23776;51.592;7.180;2023-06-10T13:39:38;41.30;21.70
37956;DHT22;23776;51.592;7.180;2023-06-10T13:42:04;41.40;29.40
37956;DHT22;23776;51.592;7.180;2023-06-10T13:44:30;41.50;28.50
37956;DHT22;23776;51.592;7.180;2023-06-10T13:46:59;42.00;21.10
37956;DHT22;23776;51.592;7.180;2023-06-10T13:49:24;42.10;19.90
37956;DHT22;23776;51.592;7.180;2023-06-10T13:51:50;42.10;27.60
37956;DHT22;23776;51.592;7.180;2023-06-10T13:54:16;42.20;26.80
37956;DHT22;23776;51.592;7.180;2023-06-10T13:56:41;42.50;18.80
37956;DHT22;23776;51.592;7.180;2023-06-10T13:59:07;42.70;18.40
37956;DHT22;23776;51.592;7.180;2023-06-10T14:01:33;42.70;26.00
37956;DHT22;23776;51.592;7.180;2023-06-10T14:03:59;42.50;24.60
37956;DHT22;23776;51.592;7.180;2023-06-10T14:06:26;42.70;24.40
37956;DHT22;23776;51.592;7.180;2023-06-10T14:08:52;42.80;17.40
37956;DHT22;23776;51.592;7.180;2023-06-10T14:11:20;42.80;16.20
37956;DHT22;23776;51.592;7.180;2023-06-10T14:13:46;42.80;23.50
37956;DHT22;23776;51.592;7.180;2023-06-10T14:18:38;43.50;15.40
37956;DHT22;23776;51.592;7.180;2023-06-10T14:21:03;43.50;14.90
37956;DHT22;23776;51.592;7.180;2023-06-10T14:23:29;43.40;22.10
37956;DHT22;23776;51.592;7.180;2023-06-10T14:25:54;43.20;21.30
37956;DHT22;23776;51.592;7.180;2023-06-10T14:28:20;43.10;20.80
37956;DHT22;23776;51.592;7.180;2023-06-10T14:30:46;42.90;13.00
37956;DHT22;23776;51.592;7.180;2023-06-10T14:33:11;43.10;13.60
37956;DHT22;23776;51.592;7.180;2023-06-10T14:35:37;43.20;20.30
37956;DHT22;23776;51.592;7.180;2023-06-10T14:38:02;43.30;20.40
37956;DHT22;23776;51.592;7.180;2023-06-10T14:40:28;43.30;12.30
37956;DHT22;23776;51.592;7.180;2023-06-10T14:42:55;43.30;19.40
37956;DHT22;23776;51.592;7.180;2023-06-10T14:45:20;43.10;18.00
37956;DHT22;23776;51.592;7.180;2023-06-10T14:47:46;43.30;18.90
37956;DHT22;23776;51.592;7.180;2023-06-10T14:50:12;43.30;11.30
37956;DHT22;23776;51.592;7.180;2023-06-10T14:52:38;43.30;18.70
37956;DHT22;23776;51.592;7.180;2023-06-10T14:55:04;43.70;19.80
37956;DHT22;23776;51.592;7.180;2023-06-10T14:57:30;43.00;17.50
37956;DHT22;23776;51.592;7.180;2023-06-10T14:59:55;43.30;10.10
37956;DHT22;23776;51.592;7.180;2023-06-10T15:02:22;43.20;16.90
37956;DHT22;23776;51.592;7.180;2023-06-10T15:04:47;41.90;16.10
37956;DHT22;23776;51.592;7.180;2023-06-10T15:07:13;42.50;16.00
37956;DHT22;23776;51.592;7.180;2023-06-10T15:09:41;41.90;8.70
37956;DHT22;23776;51.592;7.180;2023-06-10T15:12:07;41.90;16.30
37956;DHT22;23776;51.592;7.180;2023-06-10T15:14:33;41.80;15.80
37956;DHT22;23776;51.592;7.180;2023-06-10T15:16:58;41.50;8.50
37956;DHT22;23776;51.592;7.180;2023-06-10T15:19:26;41.30;8.20
37956;DHT22;23776;51.592;7.180;2023-06-10T15:21:52;41.30;15.50
37956;DHT22;23776;51.592;7.180;2023-06-10T15:24:18;41.30;15.40
37956;DHT22;23776;51.592;7.180;2023-06-10T15:26:44;41.30;15.90
37956;DHT22;23776;51.592;7.180;2023-06-10T15:29:09;40.90;7.70
37956;DHT22;23776;51.592;7.180;2023-06-10T15:31:35;40.80;15.60
37956;DHT22;23776;51.592;7.180;2023-06-10T15:34:01;40.90;15.10
37956;DHT22;23776;51.592;7.180;2023-06-10T15:36:27;41.00;15.10
37956;DHT22;23776;51.592;7.180;2023-06-10T15:38:54;41.10;8.40
37956;DHT22;23776;51.592;7.180;2023-06-10T15:41:22;41.10;15.60
37956;DHT22;23776;51.592;7.180;2023-06-10T15:43:47;41.00;15.00
37956;DHT22;23776;51.592;7.180;2023-06-10T15:46:13;40.70;7.30
37956;DHT22;23776;51.592;7.180;2023-06-10T15:48:39;40.70;7.80
37956;DHT22;23776;51.592;7.180;2023-06-10T15:51:04;40.80;8.00
37956;DHT22;23776;51.592;7.180;2023-06-10T15:53:30;40.90;14.90
37956;DHT22;23776;51.592;7.180;2023-06-10T15:55:55;40.90;15.40
37956;DHT22;23776;51.592;7.180;2023-06-10T15:58:21;40.90;14.60
37956;DHT22;23776;51.592;7.180;2023-06-10T16:00:47;40.80;7.20
37956;DHT22;23776;51.592;7.180;2023-06-10T16:03:12;41.20;7.70
37956;DHT22;23776;51.592;7.180;2023-06-10T16:05:38;41.20;14.90
37956;DHT22;23776;51.592;7.180;2023-06-10T16:08:04;41.30;14.70
37956;DHT22;23776;51.592;7.180;2023-06-10T16:10:29;41.50;7.30
37956;DHT22;23776;51.592;7.180;2023-06-10T16:12:55;41.30;7.10
37956;DHT22;23776;51.592;7.180;2023-06-10T16:15:20;41.00;6.50
37956;DHT22;23776;51.592;7.180;2023-06-10T16:17:46;40.90;6.90
37956;DHT22;23776;51.592;7.180;2023-06-10T16:20:12;40.80;6.80
37956;DHT22;23776;51.592;7.180;2023-06-10T16:22:38;40.60;6.20
37956;DHT22;23776;51.592;7.180;2023-06-10T16:25:03;40.40;13.90
37956;DHT22;23776;51.592;7.180;2023-06-10T16:27:30;40.10;13.20
37956;DHT22;23776;51.592;7.180;2023-06-10T16:29:55;39.50;7.60
37956;DHT22;23776;51.592;7.180;2023-06-10T16:32:21;39.40;13.10
37956;DHT22;23776;51.592;7.180;2023-06-10T16:34:46;39.00;5.50
37956;DHT22;23776;51.592;7.180;2023-06-10T16:37:12;38.80;13.20
37956;DHT22;23776;51.592;7.180;2023-06-10T16:39:37;38.50;4.90
37956;DHT22;23776;51.592;7.180;2023-06-10T16:42:03;38.50;12.20
37956;DHT22;23776;51.592;7.180;2023-06-10T16:44:29;38.30;11.20
37956;DHT22;23776;51.592;7.180;2023-06-10T16:46:54;38.20;4.90
37956;DHT22;23776;51.592;7.180;2023-06-10T16:49:20;38.50;5.10
37956;DHT22;23776;51.592;7.180;2023-06-10T16:51:46;38.60;5.30
37956;DHT22;23776;51.592;7.180;2023-06-10T16:54:11;38.70;12.50
37956;DHT22;23776;51.592;7.180;2023-06-10T16:56:37;38.70;5.30
37956;DHT22;23776;51.592;7.180;2023-06-10T16:59:02;38.80;5.80
37956;DHT22;23776;51.592;7.180;2023-06-10T17:01:28;38.80;13.00
37956;DHT22;23776;51.592;7.180;2023-06-10T17:03:54;39.20;5.90
37956;DHT22;23776;51.592;7.180;2023-06-10T17:06:19;39.40;13.20
37956;DHT22;23776;51.592;7.180;2023-06-10T17:08:45;39.30;6.70
37956;DHT22;23776;51.592;7.180;2023-06-10T17:11:11;39.20;5.50
37956;DHT22;23776;51.592;7.180;2023-06-10T17:13:36;39.30;13.00
37956;DHT22;23776;51.592;7.180;2023-06-10T17:16:02;39.50;12.80
37956;DHT22;23776;51.592;7.180;2023-06-10T17:18:28;39.40;5.60
37956;DHT22;23776;51.592;7.180;2023-06-10T17:20:54;39.30;5.50
37956;DHT22;23776;51.592;7.180;2023-06-10T17:23:20;39.30;12.40
37956;DHT22;23776;51.592;7.180;2023-06-10T17:25:45;39.20;12.30
37956;DHT22;23776;51.592;7.180;2023-06-10T17:28:11;39.30;12.60
37956;DHT22;23776;51.592;7.180;2023-06-10T17:30:37;39.50;5.40
37956;DHT22;23776;51.592;7.180;2023-06-10T17:33:02;39.50;12.60
37956;DHT22;23776;51.592;7.180;2023-06-10T17:35:28;39.50;12.10
37956;DHT22;23776;51.592;7.180;2023-06-10T17:37:53;39.30;5.60
37956;DHT22;23776;51.592;7.180;2023-06-10T17:40:19;39.30;4.70
37956;DHT22;23776;51.592;7.180;2023-06-10T17:42:45;39.30;12.30
37956;DHT22;23776;51.592;7.180;2023-06-10T17:45:11;39.30;11.60
37956;DHT22;23776;51.592;7.180;2023-06-10T17:47:37;39.20;11.90
37956;DHT22;23776;51.592;7.180;2023-06-10T17:50:03;39.10;4.40
37956;DHT22;23776;51.592;7.180;2023-06-10T17:52:28;39.50;12.00
37956;DHT22;23776;51.592;7.180;2023-06-10T17:54:54;38.50;11.50
37956;DHT22;23776;51.592;7.180;2023-06-10T17:57:20;36.10;1.60
37956;DHT22;23776;51.592;7.180;2023-06-10T17:59:45;35.40;1.70
37956;DHT22;23776;51.592;7.180;2023-06-10T18:02:12;35.00;9.70
37956;DHT22;23776;51.592;7.180;2023-06-10T18:04:38;34.10;8.30
37956;DHT22;23776;51.592;7.180;2023-06-10T18:07:04;33.40;7.60
37956;DHT22;23776;51.592;7.180;2023-06-10T18:09:30;32.30;2.40
37956;DHT22;23776;51.592;7.180;2023-06-10T18:11:55;32.10;8.30
37956;DHT22;23776;51.592;7.180;2023-06-10T18:14:21;31.80;8.50
37956;DHT22;23776;51.592;7.180;2023-06-10T18:16:46;31.10;5.00
37956;DHT22;23776;51.592;7.180;2023-06-10T18:19:12;30.70;7.90
37956;DHT22;23776;51.592;7.180;2023-06-10T18:21:38;30.70;14.70
37956;DHT22;23776;51.592;7.180;2023-06-10T18:24:04;30.20;11.10
37956;DHT22;23776;51.592;7.180;2023-06-10T18:26:30;30.00;13.30
37956;DHT22;23776;51.592;7.180;2023-06-10T18:28:56;29.70;13.70
37956;DHT22;23776;51.592;7.180;2023-06-10T18:33:47;29.20;16.60
37956;DHT22;23776;51.592;7.180;2023-06-10T18:36:13;29.10;16.60
37956;DHT22;23776;51.592;7.180;2023-06-10T18:38:38;28.90;17.10
37956;DHT22;23776;51.592;7.180;2023-06-10T18:41:04;28.70;18.00
37956;DHT22;23776;51.592;7.180;2023-06-10T18:43:30;28.70;20.00
37956;DHT22;23776;51.592;7.180;2023-06-10T18:45:56;28.50;26.10
37956;DHT22;23776;51.592;7.180;2023-06-10T18:50:47;28.40;20.00
37956;DHT22;23776;51.592;7.180;2023-06-10T18:53:13;28.20;21.00
37956;DHT22;23776;51.592;7.180;2023-06-10T18:55:39;28.10;24.80
37956;DHT22;23776;51.592;7.180;2023-06-10T18:58:04;28.10;26.30
37956;DHT22;23776;51.592;7.180;2023-06-10T19:00:31;28.00;25.20
37956;DHT22;23776;51.592;7.180;2023-06-10T19:02:57;28.00;41.10
37956;DHT22;23776;51.592;7.180;2023-06-10T19:07:49;27.80;32.10
37956;DHT22;23776;51.592;7.180;2023-06-10T19:10:15;27.80;32.20
37956;DHT22;23776;51.592;7.180;2023-06-10T19:15:07;27.70;41.10
37956;DHT22;23776;51.592;7.180;2023-06-10T19:17:33;27.70;37.10
37956;DHT22;23776;51.592;7.180;2023-06-10T19:19:59;27.60;39.80
37956;DHT22;23776;51.592;7.180;2023-06-10T19:22:24;27.60;40.80
37956;DHT22;23776;51.592;7.180;2023-06-10T19:25:03;27.50;39.90
37956;DHT22;23776;51.592;7.180;2023-06-10T19:27:29;27.40;39.80
37956;DHT22;23776;51.592;7.180;2023-06-10T19:29:56;27.30;36.50
37956;DHT22;23776;51.592;7.180;2023-06-10T19:32:23;27.10;31.70
37956;DHT22;23776;51.592;7.180;2023-06-10T19:34:49;27.10;33.80
37956;DHT22;23776;51.592;7.180;2023-06-10T19:37:15;26.90;31.20
37956;DHT22;23776;51.592;7.180;2023-06-10T19:39:41;26.90;36.80
37956;DHT22;23776;51.592;7.180;2023-06-10T19:42:07;26.90;45.90
37956;DHT22;23776;51.592;7.180;2023-06-10T19:44:32;26.90;41.10
37956;DHT22;23776;51.592;7.180;2023-06-10T19:47:00;26.80;41.80
37956;DHT22;23776;51.592;7.180;2023-06-10T19:49:25;26.80;42.80
37956;DHT22;23776;51.592;7.180;2023-06-10T19:51:51;26.80;52.50
37956;DHT22;23776;51.592;7.180;2023-06-10T19:54:17;26.70;40.30
37956;DHT22;23776;51.592;7.180;2023-06-10T19:56:42;26.70;44.90
37956;DHT22;23776;51.592;7.180;2023-06-10T19:59:08;26.70;47.50
37956;DHT22;23776;51.592;7.180;2023-06-10T20:01:34;26.60;49.20
37956;DHT22;23776;51.592;7.180;2023-06-10T20:03:59;26.60;46.10
37956;DHT22;23776;51.592;7.180;2023-06-10T20:06:25;26.60;58.00
37956;DHT22;23776;51.592;7.180;2023-06-10T20:08:51;26.50;55.30
37956;DHT22;23776;51.592;7.180;2023-06-10T20:11:17;26.50;64.70
37956;DHT22;23776;51.592;7.180;2023-06-10T20:13:42;26.30;53.70
37956;DHT22;23776;51.592;7.180;2023-06-10T20:16:09;26.30;62.10
37956;DHT22;23776;51.592;7.180;2023-06-10T20:18:35;26.10;46.40
37956;DHT22;23776;51.592;7.180;2023-06-10T20:21:02;26.10;46.20
37956;DHT22;23776;51.592;7.180;2023-06-10T20:23:27;26.10;54.10
37956;DHT22;23776;51.592;7.180;2023-06-10T20:25:53;26.00;62.40
37956;DHT22;23776;51.592;7.180;2023-06-10T20:33:11;25.80;65.00
37956;DHT22;23776;51.592;7.180;2023-06-10T20:35:38;25.70;61.10
37956;DHT22;23776;51.592;7.180;2023-06-10T20:40:29;25.60;68.60
37956;DHT22;23776;51.592;7.180;2023-06-10T20:42:55;25.50;67.80
37956;DHT22;23776;51.592;7.180;2023-06-10T20:47:47;25.30;76.10
37956;DHT22;23776;51.592;7.180;2023-06-10T20:50:12;25.30;81.90
37956;DHT22;23776;51.592;7.180;2023-06-10T20:55:04;25.20;81.70
37956;DHT22;23776;51.592;7.180;2023-06-10T20:57:31;28.90;90.20
37956;DHT22;23776;51.592;7.180;2023-06-10T20:59:56;25.10;85.00